createdAt,value
2022-11-20T00:01:25.971Z,17.10
2022-11-20T00:03:55.061Z,16.30
2022-11-20T00:06:23.133Z,15.13
2022-11-20T00:08:50.400Z,15.48
2022-11-20T00:11:22.149Z,16.35
2022-11-20T00:13:51.326Z,16.23
2022-11-20T00:16:20.553Z,15.75
2022-11-20T00:18:47.801Z,16.80
2022-11-20T00:21:20.363Z,17.42
2022-11-20T00:23:49.559Z,18.30
2022-11-20T00:26:18.312Z,18.13
2022-11-20T00:28:52.483Z,18.77
2022-11-20T00:31:19.210Z,18.15
2022-11-20T00:33:46.706Z,19.02
2022-11-20T00:36:16.106Z,19.00
2022-11-20T00:38:42.976Z,18.95
2022-11-20T00:41:12.006Z,18.73
2022-11-20T00:43:39.511Z,18.27
2022-11-20T00:46:17.990Z,17.50
2022-11-20T00:48:45.932Z,17.40
2022-11-20T00:51:14.653Z,17.75
2022-11-20T00:53:42.104Z,17.98
2022-11-20T00:56:11.786Z,19.20
2022-11-20T00:58:40.684Z,18.42
2022-11-20T01:01:08.727Z,18.73
2022-11-20T01:03:37.079Z,20.13
2022-11-20T01:06:05.958Z,19.42
2022-11-20T01:08:34.114Z,20.92
2022-11-20T01:11:06.497Z,20.38
2022-11-20T01:13:39.722Z,21.95
2022-11-20T01:16:12.783Z,21.20
2022-11-20T01:18:42.950Z,21.53
2022-11-20T01:21:12.325Z,22.67
2022-11-20T01:23:41.492Z,21.75
2022-11-20T01:26:11.095Z,20.70
2022-11-20T01:28:38.559Z,21.70
2022-11-20T01:31:17.374Z,21.75
2022-11-20T01:33:45.578Z,21.45
2022-11-20T01:36:13.085Z,23.88
2022-11-20T01:38:40.460Z,21.63
2022-11-20T01:41:08.181Z,20.98
2022-11-20T01:43:35.496Z,21.42
2022-11-20T01:46:29.953Z,21.92
2022-11-20T01:49:06.556Z,22.35
2022-11-20T01:51:42.209Z,22.77
2022-11-20T01:54:14.202Z,21.33
2022-11-20T01:56:42.626Z,22.95
2022-11-20T01:59:12.039Z,22.95
2022-11-20T02:01:40.305Z,22.73
2022-11-20T02:04:13.647Z,22.52
2022-11-20T02:06:58.062Z,24.60
2022-11-20T02:09:26.741Z,23.53
2022-11-20T02:11:59.148Z,22.40
2022-11-20T02:14:30.915Z,23.13
2022-11-20T02:16:59.665Z,22.65
2022-11-20T02:19:34.635Z,22.35
2022-11-20T02:22:15.416Z,22.75
2022-11-20T02:24:44.402Z,22.42
2022-11-20T02:27:15.842Z,23.00
2022-11-20T02:30:13.322Z,22.30
2022-11-20T02:32:42.966Z,23.27
2022-11-20T02:35:40.160Z,22.30
2022-11-20T02:38:11.099Z,22.85
2022-11-20T02:40:41.192Z,23.48
2022-11-20T02:43:12.062Z,23.55
2022-11-20T02:45:41.441Z,23.60
2022-11-20T02:48:14.859Z,22.48
2022-11-20T02:50:47.512Z,23.65
2022-11-20T02:53:17.010Z,22.63
2022-11-20T02:55:46.017Z,23.40
2022-11-20T02:58:18.344Z,22.60
2022-11-20T03:00:47.820Z,22.35
2022-11-20T03:03:19.875Z,21.60
2022-11-20T03:05:53.896Z,23.25
2022-11-20T03:08:23.585Z,22.17
2022-11-20T03:10:55.036Z,23.88
2022-11-20T03:13:25.357Z,22.83
2022-11-20T03:15:56.703Z,22.25
2022-11-20T03:18:30.100Z,21.98
2022-11-20T03:21:00.919Z,21.80
2022-11-20T03:23:33.026Z,22.83
2022-11-20T03:26:24.287Z,22.80
2022-11-20T03:28:57.967Z,23.17
2022-11-20T03:31:37.984Z,23.85
2022-11-20T03:34:06.545Z,23.67
2022-11-20T03:36:35.211Z,24.38
2022-11-20T03:39:02.387Z,23.10
2022-11-20T03:41:34.155Z,24.30
2022-11-20T03:44:04.650Z,24.48
2022-11-20T03:46:35.064Z,24.60
2022-11-20T03:49:05.818Z,24.45
2022-11-20T03:51:38.436Z,24.33
2022-11-20T03:54:11.638Z,24.02
2022-11-20T03:56:42.923Z,25.20
2022-11-20T03:59:13.447Z,26.08
2022-11-20T04:01:45.538Z,24.95
2022-11-20T04:04:19.708Z,26.80
2022-11-20T04:06:50.875Z,25.45
2022-11-20T04:09:22.600Z,25.63
2022-11-20T04:11:53.374Z,26.15
2022-11-20T04:14:26.106Z,23.88
2022-11-20T04:16:57.698Z,25.83
2022-11-20T04:19:28.354Z,25.05
2022-11-20T04:21:58.497Z,24.08
2022-11-20T04:24:28.944Z,24.17
2022-11-20T04:26:57.911Z,22.70
2022-11-20T04:29:26.055Z,21.92
2022-11-20T04:31:53.000Z,22.98
2022-11-20T04:34:20.489Z,22.30
2022-11-20T04:36:49.880Z,22.45
2022-11-20T04:39:18.710Z,22.63
2022-11-20T04:41:47.658Z,21.85
2022-11-20T04:44:17.100Z,21.35
2022-11-20T04:46:46.718Z,22.23
2022-11-20T04:49:15.528Z,22.25
2022-11-20T04:51:42.786Z,22.88
2022-11-20T04:54:11.295Z,22.52
2022-11-20T04:56:39.272Z,23.48
2022-11-20T04:59:10.979Z,24.05
2022-11-20T05:01:40.570Z,24.20
2022-11-20T05:04:11.341Z,24.58
2022-11-20T05:06:40.669Z,23.88
2022-11-20T05:09:08.213Z,25.92
2022-11-20T05:11:36.484Z,23.48
2022-11-20T05:14:04.008Z,24.67
2022-11-20T05:16:31.470Z,24.98
2022-11-20T05:19:01.831Z,25.85
2022-11-20T05:21:33.706Z,26.70
2022-11-20T05:24:02.241Z,26.13
2022-11-20T05:26:30.400Z,25.30
2022-11-20T05:28:57.141Z,25.75
2022-11-20T05:31:28.013Z,24.20
2022-11-20T05:33:57.323Z,26.00
2022-11-20T05:36:24.904Z,25.20
2022-11-20T05:38:54.417Z,27.63
2022-11-20T05:41:23.797Z,28.75
2022-11-20T05:43:51.208Z,26.00
2022-11-20T05:46:26.396Z,26.30
2022-11-20T05:48:56.061Z,26.38
2022-11-20T05:51:23.551Z,27.38
2022-11-20T05:53:51.352Z,27.88
2022-11-20T05:56:21.659Z,29.15
2022-11-20T05:58:49.689Z,25.75
2022-11-20T06:01:26.524Z,25.52
2022-11-20T06:03:56.898Z,26.17
2022-11-20T06:06:25.304Z,25.05
2022-11-20T06:08:52.827Z,25.85
2022-11-20T06:11:20.351Z,22.88
2022-11-20T06:13:48.011Z,23.10
2022-11-20T06:16:18.417Z,22.55
2022-11-20T06:18:46.912Z,21.10
2022-11-20T06:21:19.452Z,20.65
2022-11-20T06:23:47.531Z,20.98
2022-11-20T06:26:21.882Z,20.15
2022-11-20T06:28:51.202Z,19.80
2022-11-20T06:31:20.729Z,17.98
2022-11-20T06:33:50.849Z,18.73
2022-11-20T06:36:22.983Z,18.10
2022-11-20T06:38:53.129Z,17.70
2022-11-20T06:41:24.925Z,17.38
2022-11-20T06:43:52.864Z,19.58
2022-11-20T06:46:25.027Z,18.25
2022-11-20T06:48:56.503Z,18.27
2022-11-20T06:51:24.874Z,18.10
2022-11-20T06:53:56.555Z,19.10
2022-11-20T06:56:28.429Z,19.65
2022-11-20T06:58:58.313Z,19.20
2022-11-20T07:01:27.654Z,19.10
2022-11-20T07:03:58.177Z,19.55
2022-11-20T07:06:27.254Z,18.98
2022-11-20T07:08:54.818Z,19.50
2022-11-20T07:11:22.966Z,19.42
2022-11-20T07:13:50.629Z,19.13
2022-11-20T07:16:18.401Z,19.85
2022-11-20T07:18:50.555Z,19.27
2022-11-20T07:21:19.295Z,18.80
2022-11-20T07:23:47.516Z,18.75
2022-11-20T07:26:16.610Z,18.58
2022-11-20T07:28:48.828Z,18.58
2022-11-20T07:31:20.790Z,19.37
2022-11-20T07:33:51.188Z,18.90
2022-11-20T07:36:20.979Z,18.08
2022-11-20T07:38:50.104Z,19.15
2022-11-20T07:41:17.531Z,19.35
2022-11-20T07:43:46.043Z,19.25
2022-11-20T07:46:13.981Z,19.13
2022-11-20T07:48:41.074Z,19.48
2022-11-20T07:51:09.509Z,20.00
2022-11-20T07:53:39.780Z,19.48
2022-11-20T07:56:09.096Z,21.10
2022-11-20T07:58:36.898Z,22.02
2022-11-20T08:01:07.409Z,23.50
2022-11-20T08:03:36.259Z,22.30
2022-11-20T08:06:03.781Z,21.58
2022-11-20T08:08:33.820Z,23.27
2022-11-20T08:11:21.770Z,22.90
2022-11-20T08:14:07.751Z,22.48
2022-11-20T08:16:36.480Z,20.95
2022-11-20T08:19:04.206Z,21.45
2022-11-20T08:21:37.927Z,22.02
2022-11-20T08:24:07.214Z,21.20
2022-11-20T08:26:35.150Z,20.60
2022-11-20T08:29:05.909Z,21.98
2022-11-20T08:31:35.829Z,22.10
2022-11-20T08:34:08.984Z,22.52
2022-11-20T08:36:37.574Z,21.95
2022-11-20T08:39:08.789Z,21.42
2022-11-20T08:41:39.008Z,21.63
2022-11-20T08:44:08.881Z,23.52
2022-11-20T08:46:40.752Z,23.45
2022-11-20T08:49:10.856Z,22.17
2022-11-20T08:51:40.044Z,21.60
2022-11-20T08:54:10.657Z,20.50
2022-11-20T08:56:41.488Z,21.80
2022-11-20T08:59:23.408Z,21.00
2022-11-20T09:02:01.435Z,20.42
2022-11-20T09:04:29.455Z,20.30
2022-11-20T09:06:58.641Z,21.02
2022-11-20T09:09:28.724Z,20.70
2022-11-20T09:11:57.711Z,21.02
2022-11-20T09:14:31.527Z,21.33
2022-11-20T09:16:59.512Z,21.08
2022-11-20T09:19:42.610Z,21.98
2022-11-20T09:22:11.474Z,21.60
2022-11-20T09:24:40.813Z,22.27
2022-11-20T09:27:10.648Z,21.30
2022-11-20T09:29:38.949Z,21.42
2022-11-20T09:32:07.430Z,22.85
2022-11-20T09:34:34.372Z,23.63
2022-11-20T09:37:06.156Z,24.65
2022-11-20T09:39:40.325Z,24.65
2022-11-20T09:42:33.793Z,23.92
2022-11-20T09:45:27.470Z,22.30
2022-11-20T09:48:18.575Z,22.55
2022-11-20T09:51:23.945Z,23.23
2022-11-20T09:54:21.825Z,24.88
2022-11-20T09:56:57.898Z,22.60
2022-11-20T09:59:54.644Z,21.48
2022-11-20T10:03:19.092Z,19.50
2022-11-20T10:05:49.455Z,23.95
2022-11-20T10:08:25.107Z,24.02
2022-11-20T10:11:17.380Z,26.17
2022-11-20T10:14:33.648Z,26.02
2022-11-20T10:17:29.731Z,24.30
2022-11-20T10:20:12.766Z,21.52
2022-11-20T10:23:24.322Z,22.35
2022-11-20T10:26:37.547Z,20.15
2022-11-20T10:29:22.304Z,23.60
2022-11-20T10:32:00.117Z,24.58
2022-11-20T10:34:38.717Z,23.80
2022-11-20T10:37:27.231Z,24.15
2022-11-20T10:40:23.006Z,22.45
2022-11-20T10:43:00.146Z,23.88
2022-11-20T10:46:06.673Z,25.08
2022-11-20T10:48:36.941Z,23.52
2022-11-20T10:51:16.600Z,25.92
2022-11-20T10:54:08.795Z,26.95
2022-11-20T10:56:52.282Z,27.95
2022-11-20T10:59:55.886Z,26.63
2022-11-20T11:02:25.583Z,27.70
2022-11-20T11:04:57.814Z,26.27
2022-11-20T11:07:40.774Z,24.88
2022-11-20T11:10:26.371Z,27.08
2022-11-20T11:12:55.558Z,24.58
2022-11-20T11:15:33.821Z,23.10
2022-11-20T11:18:02.343Z,22.40
2022-11-20T11:20:31.251Z,24.33
2022-11-20T11:23:01.453Z,24.40
2022-11-20T11:25:36.184Z,23.90
2022-11-20T11:28:22.400Z,22.33
2022-11-20T11:30:54.160Z,23.35
2022-11-20T11:33:31.690Z,22.25
2022-11-20T11:36:08.034Z,22.83
2022-11-20T11:38:40.378Z,25.77
2022-11-20T11:41:17.273Z,27.02
2022-11-20T11:44:16.778Z,28.52
2022-11-20T11:46:57.514Z,26.67
2022-11-20T11:49:28.868Z,24.90
2022-11-20T11:52:22.781Z,24.15
2022-11-20T11:57:52.452Z,24.40
2022-11-20T12:00:22.780Z,25.90
2022-11-20T12:03:36.710Z,24.52
2022-11-20T12:06:19.285Z,24.50
2022-11-20T12:08:51.550Z,24.85
2022-11-20T12:11:54.919Z,25.13
2022-11-20T12:14:30.078Z,24.27
2022-11-20T12:17:00.472Z,26.48
2022-11-20T12:19:37.001Z,25.60
2022-11-20T12:22:59.456Z,27.52
2022-11-20T12:25:32.843Z,26.80
2022-11-20T12:28:35.869Z,29.47
2022-11-20T12:31:40.059Z,26.92
2022-11-20T12:34:44.502Z,25.30
2022-11-20T12:37:43.555Z,27.75
2022-11-20T12:40:26.394Z,26.25
2022-11-20T12:43:57.203Z,25.90
2022-11-20T12:46:47.871Z,28.95
2022-11-20T12:50:02.491Z,27.08
2022-11-20T12:52:49.568Z,25.88
2022-11-20T12:55:43.112Z,28.08
2022-11-20T12:58:45.782Z,27.38
2022-11-20T13:01:45.769Z,25.88
2022-11-20T13:04:38.676Z,26.63
2022-11-20T13:07:09.198Z,27.42
2022-11-20T13:09:41.621Z,29.05
2022-11-20T13:12:47.938Z,29.60
2022-11-20T13:15:41.860Z,27.85
2022-11-20T13:18:11.560Z,28.07
2022-11-20T13:20:44.440Z,28.10
2022-11-20T13:23:12.458Z,27.02
2022-11-20T13:25:41.023Z,26.73
2022-11-20T13:28:31.881Z,25.92
2022-11-20T13:31:00.835Z,26.08
2022-11-20T13:33:34.342Z,26.08
2022-11-20T13:36:05.333Z,25.80
2022-11-20T13:38:47.920Z,26.13
2022-11-20T13:41:40.759Z,26.65
2022-11-20T13:44:25.504Z,25.40
2022-11-20T13:46:52.946Z,26.42
2022-11-20T13:49:46.015Z,31.27
2022-11-20T13:52:53.139Z,26.38
2022-11-20T13:55:55.202Z,24.27
2022-11-20T13:58:51.270Z,24.65
2022-11-20T14:01:22.219Z,24.08
2022-11-20T14:04:05.604Z,23.05
2022-11-20T14:06:44.726Z,23.60
2022-11-20T14:09:33.039Z,23.35
2022-11-20T14:12:00.810Z,24.00
2022-11-20T14:14:29.834Z,23.95
2022-11-20T14:17:24.033Z,24.85
2022-11-20T14:19:53.077Z,24.00
2022-11-20T14:22:25.237Z,24.17
2022-11-20T14:25:30.199Z,23.77
2022-11-20T14:28:01.841Z,23.92
2022-11-20T14:30:46.253Z,25.35
2022-11-20T14:33:14.803Z,24.48
2022-11-20T14:35:47.529Z,24.20
2022-11-20T14:38:17.738Z,22.85
2022-11-20T14:40:46.053Z,24.55
2022-11-20T14:43:30.380Z,24.08
2022-11-20T14:46:02.633Z,24.38
2022-11-20T14:48:59.715Z,24.35
2022-11-20T14:51:47.877Z,25.13
2022-11-20T14:54:19.342Z,23.52
2022-11-20T14:56:58.302Z,24.38
2022-11-20T14:59:27.532Z,24.88
2022-11-20T15:02:15.214Z,28.73
2022-11-20T15:04:50.094Z,25.58
2022-11-20T15:07:28.262Z,26.00
2022-11-20T15:10:13.849Z,24.38
2022-11-20T15:12:50.782Z,23.45
2022-11-20T15:15:37.968Z,27.02
2022-11-20T15:18:06.327Z,25.92
2022-11-20T15:20:34.715Z,26.90
2022-11-20T15:23:01.881Z,46.72
2022-11-20T15:25:29.626Z,36.25
2022-11-20T15:27:57.708Z,28.80
2022-11-20T15:30:25.438Z,24.55
2022-11-20T15:32:52.441Z,25.85
2022-11-20T15:35:19.447Z,29.20
2022-11-20T15:37:46.254Z,31.35
2022-11-20T15:45:13.707Z,26.63
2022-11-20T15:47:40.599Z,26.85
2022-11-20T15:50:12.589Z,26.63
2022-11-20T15:52:42.214Z,27.25
2022-11-20T15:55:11.767Z,27.55
2022-11-20T15:57:38.793Z,28.70
2022-11-20T16:00:06.926Z,30.88
2022-11-20T16:02:36.723Z,31.85
2022-11-20T16:05:04.249Z,31.02
2022-11-20T16:07:31.219Z,30.58
2022-11-20T16:09:58.119Z,32.85
2022-11-20T16:12:43.716Z,35.70
2022-11-20T16:15:29.339Z,28.35
2022-11-20T16:17:56.154Z,26.73
2022-11-20T16:20:23.203Z,24.73
2022-11-20T16:22:50.289Z,25.00
2022-11-20T16:25:17.342Z,24.30
2022-11-20T16:27:48.035Z,25.20
2022-11-20T16:30:15.394Z,31.20
2022-11-20T16:32:42.584Z,36.42
2022-11-20T16:35:13.089Z,42.63
2022-11-20T16:37:40.886Z,31.70
2022-11-20T16:40:08.352Z,29.85
2022-11-20T16:42:36.422Z,33.90
2022-11-20T16:45:03.991Z,32.28
2022-11-20T16:47:37.217Z,32.22
2022-11-20T16:50:05.242Z,31.30
2022-11-20T16:52:32.186Z,26.88
2022-11-20T16:54:59.005Z,27.73
2022-11-20T16:57:28.959Z,26.75
2022-11-20T17:00:00.331Z,26.58
2022-11-20T17:02:28.985Z,26.10
2022-11-20T17:04:55.742Z,29.60
2022-11-20T17:07:22.670Z,31.55
2022-11-20T17:09:49.813Z,29.00
2022-11-20T17:12:16.576Z,28.23
2022-11-20T17:14:43.447Z,27.25
2022-11-20T17:17:10.571Z,31.60
2022-11-20T17:19:37.549Z,30.70
2022-11-20T17:22:04.531Z,31.30
2022-11-20T17:24:32.104Z,34.90
2022-11-20T17:26:59.908Z,22.50
2022-11-20T17:29:26.960Z,21.10
2022-11-20T17:31:54.558Z,19.67
2022-11-20T17:34:22.219Z,19.00
2022-11-20T17:36:49.413Z,19.45
2022-11-20T17:39:17.693Z,19.13
2022-11-20T17:41:44.870Z,19.08
2022-11-20T17:44:12.974Z,18.58
2022-11-20T17:46:40.184Z,24.80
2022-11-20T17:49:07.779Z,24.33
2022-11-20T17:51:37.869Z,26.77
2022-11-20T17:54:07.765Z,24.63
2022-11-20T17:56:54.670Z,28.38
2022-11-20T17:59:21.889Z,37.53
2022-11-20T18:01:48.874Z,27.98
2022-11-20T18:04:16.937Z,25.75
2022-11-20T18:06:44.307Z,25.27
2022-11-20T18:09:11.948Z,27.05
2022-11-20T18:11:40.638Z,25.00
2022-11-20T18:14:33.082Z,25.17
2022-11-20T18:17:05.657Z,27.15
2022-11-20T18:19:42.707Z,24.95
2022-11-20T18:22:19.682Z,23.63
2022-11-20T18:24:46.708Z,28.17
2022-11-20T18:27:19.719Z,22.30
2022-11-20T18:29:48.885Z,21.38
2022-11-20T18:32:15.793Z,21.70
2022-11-20T18:34:42.711Z,19.20
2022-11-20T18:37:10.097Z,19.55
2022-11-20T18:39:37.235Z,18.25
2022-11-20T18:42:23.098Z,18.67
2022-11-20T18:44:53.978Z,18.92
2022-11-20T18:47:26.351Z,19.67
2022-11-20T18:49:55.244Z,18.95
2022-11-20T18:52:34.855Z,20.75
2022-11-20T18:55:03.292Z,28.73
2022-11-20T18:57:30.634Z,23.08
2022-11-20T19:00:08.044Z,20.40
2022-11-20T19:02:41.070Z,20.55
2022-11-20T19:05:14.176Z,20.40
2022-11-20T19:07:41.255Z,20.45
2022-11-20T19:10:08.525Z,22.02
2022-11-20T19:12:35.689Z,19.13
2022-11-20T19:15:02.829Z,26.48
2022-11-20T19:17:29.706Z,18.83
2022-11-20T19:19:56.777Z,18.90
2022-11-20T19:22:24.090Z,17.65
2022-11-20T19:24:50.876Z,17.75
2022-11-20T19:27:17.831Z,18.45
2022-11-20T19:29:44.760Z,17.90
2022-11-20T19:32:11.649Z,18.25
2022-11-20T19:34:38.555Z,18.48
2022-11-20T19:37:05.540Z,17.55
2022-11-20T19:39:32.362Z,18.38
2022-11-20T19:41:59.593Z,19.02
2022-11-20T19:44:26.556Z,18.38
2022-11-20T19:46:53.670Z,18.08
2022-11-20T19:49:20.932Z,17.83
2022-11-20T19:51:49.616Z,19.38
2022-11-20T19:54:17.103Z,17.00
2022-11-20T19:56:45.623Z,17.58
2022-11-20T19:59:13.199Z,24.52
2022-11-20T20:01:40.331Z,25.02
2022-11-20T20:04:07.313Z,16.65
2022-11-20T20:06:36.422Z,17.35
2022-11-20T20:09:08.658Z,16.63
2022-11-20T20:11:36.105Z,16.55
2022-11-20T20:14:11.356Z,16.63
2022-11-20T20:16:38.392Z,16.42
2022-11-20T20:19:05.950Z,17.83
2022-11-20T20:21:35.278Z,17.92
2022-11-20T20:24:02.603Z,21.92
2022-11-20T20:26:31.542Z,18.67
2022-11-20T20:28:58.421Z,21.80
2022-11-20T20:31:28.121Z,34.80
2022-11-20T20:33:55.410Z,56.03
2022-11-20T20:36:23.429Z,18.83
2022-11-20T20:38:54.678Z,17.08
2022-11-20T20:41:23.570Z,16.80
2022-11-20T20:44:09.175Z,16.70
2022-11-20T20:46:36.008Z,16.98
2022-11-20T20:49:03.122Z,16.55
2022-11-20T20:51:30.171Z,16.33
2022-11-20T20:53:57.311Z,17.85
2022-11-20T20:56:24.354Z,16.60
2022-11-20T20:58:51.459Z,16.45
2022-11-20T21:01:19.665Z,16.45
2022-11-20T21:03:46.949Z,18.20
2022-11-20T21:06:14.099Z,20.77
2022-11-20T21:08:43.546Z,17.75
2022-11-20T21:11:14.014Z,17.10
2022-11-20T21:13:43.218Z,16.88
2022-11-20T21:16:14.043Z,37.30
2022-11-20T21:18:41.089Z,20.85
2022-11-20T21:21:27.729Z,31.80
2022-11-20T21:23:54.522Z,15.70
2022-11-20T21:26:21.857Z,16.73
2022-11-20T21:28:50.227Z,16.77
2022-11-20T21:31:22.549Z,16.25
2022-11-20T21:33:51.122Z,15.93
2022-11-20T21:36:22.908Z,15.98
2022-11-20T21:38:51.604Z,14.07
2022-11-20T21:41:18.569Z,14.45
2022-11-20T21:43:45.722Z,14.98
2022-11-20T21:46:14.543Z,14.68
2022-11-20T21:48:43.452Z,14.40
2022-11-20T21:51:12.510Z,15.55
2022-11-20T21:53:40.136Z,15.98
2022-11-20T21:56:09.263Z,15.20
2022-11-20T21:58:37.530Z,12.77
2022-11-20T22:01:15.162Z,13.63
2022-11-20T22:03:42.669Z,13.20
2022-11-20T22:06:10.690Z,12.93
2022-11-20T22:08:38.300Z,13.45
2022-11-20T22:11:07.171Z,13.93
2022-11-20T22:13:52.542Z,12.57
2022-11-20T22:16:19.480Z,12.48
2022-11-20T22:18:51.270Z,10.73
2022-11-20T22:21:20.368Z,10.82
2022-11-20T22:23:47.966Z,10.88
2022-11-20T22:26:17.503Z,10.43
2022-11-20T22:28:48.083Z,16.92
2022-11-20T22:31:15.663Z,10.80
2022-11-20T22:33:42.908Z,10.63
2022-11-20T22:36:12.171Z,9.95
2022-11-20T22:38:40.438Z,9.00
2022-11-20T22:41:15.091Z,9.18
2022-11-20T22:43:42.644Z,8.73
2022-11-20T22:46:17.820Z,8.65
2022-11-20T22:48:51.160Z,8.23
2022-11-20T22:51:20.415Z,7.77
2022-11-20T22:53:47.657Z,8.10
2022-11-20T22:56:15.015Z,8.60
2022-11-20T22:58:43.872Z,8.68
2022-11-20T23:01:18.441Z,14.45
2022-11-20T23:03:48.344Z,10.68
2022-11-20T23:06:17.067Z,9.90
2022-11-20T23:08:43.930Z,13.00
2022-11-20T23:11:22.448Z,11.45
2022-11-20T23:13:53.349Z,10.82
2022-11-20T23:16:20.357Z,10.88
2022-11-20T23:18:47.663Z,10.48
2022-11-20T23:21:18.316Z,10.77
2022-11-20T23:23:53.259Z,9.80
2022-11-20T23:26:22.201Z,10.00
2022-11-20T23:28:49.166Z,9.18
2022-11-20T23:31:16.922Z,9.90
2022-11-20T23:33:45.267Z,9.15
2022-11-20T23:36:13.040Z,9.32
2022-11-20T23:38:40.320Z,9.30
2022-11-20T23:41:07.634Z,9.00
2022-11-20T23:43:35.146Z,8.23
2022-11-20T23:46:03.081Z,9.25
2022-11-20T23:48:32.694Z,8.57
2022-11-20T23:50:59.636Z,8.00
2022-11-20T23:53:27.332Z,8.25
2022-11-20T23:55:55.880Z,7.90
2022-11-20T23:58:24.293Z,7.28
